createdAt,value
2022-08-07T00:02:40.823Z,94018.09
2022-08-07T00:07:18.966Z,94018.88
2022-08-07T00:12:20.966Z,94020.38
2022-08-07T00:17:22.998Z,94019.19
2022-08-07T00:22:35.334Z,94013.63
2022-08-07T00:27:52.995Z,94020.22
2022-08-07T00:32:57.650Z,94016.75
2022-08-07T00:38:00.750Z,94009.63
2022-08-07T00:43:02.597Z,94011.25
2022-08-07T00:48:09.181Z,94014.78
2022-08-07T00:53:13.378Z,94007.53
2022-08-07T00:58:15.229Z,94020.63
2022-08-07T01:03:18.509Z,94007.25
2022-08-07T01:08:20.592Z,94008.22
2022-08-07T01:13:24.088Z,94019.34
2022-08-07T01:18:27.396Z,94012.13
2022-08-07T01:23:38.593Z,94005.09
2022-08-07T01:28:48.285Z,94012.56
2022-08-07T01:33:57.569Z,94018.06
2022-08-07T01:39:09.796Z,94026.50
2022-08-07T01:44:15.498Z,94023.94
2022-08-07T01:49:22.205Z,94031.72
2022-08-07T01:54:33.093Z,94035.31
2022-08-07T01:59:47.282Z,94030.63
2022-08-07T02:04:59.063Z,94031.16
2022-08-07T02:10:06.602Z,94028.88
2022-08-07T02:15:13.519Z,94030.25
2022-08-07T02:20:23.303Z,94020.22
2022-08-07T02:26:10.351Z,94021.44
2022-08-07T02:30:54.290Z,94020.44
2022-08-07T02:36:29.455Z,94034.94
2022-08-07T02:41:21.721Z,94040.22
2022-08-07T02:46:28.814Z,94040.06
2022-08-07T02:51:49.648Z,94029.19
2022-08-07T02:56:57.242Z,94025.25
2022-08-07T03:02:01.310Z,94039.44
2022-08-07T03:07:07.341Z,94033.28
2022-08-07T03:12:22.707Z,94041.81
2022-08-07T03:17:54.062Z,94033.56
2022-08-07T03:22:59.931Z,94030.97
2022-08-07T03:28:09.675Z,94035.94
2022-08-07T03:33:25.154Z,94031.31
2022-08-07T03:38:35.676Z,94041.56
2022-08-07T03:43:56.809Z,94044.63
2022-08-07T03:49:03.487Z,94037.41
2022-08-07T03:54:36.412Z,94049.25
2022-08-07T03:59:46.750Z,94039.50
2022-08-07T04:05:00.450Z,94042.38
2022-08-07T04:10:03.090Z,94046.31
2022-08-07T04:15:05.605Z,94050.63
2022-08-07T04:20:12.926Z,94042.66
2022-08-07T04:25:18.430Z,94034.47
2022-08-07T04:30:39.330Z,94045.63
2022-08-07T04:35:54.730Z,94036.50
2022-08-07T04:41:01.069Z,94046.44
2022-08-07T04:46:29.577Z,94054.34
2022-08-07T04:51:50.254Z,94054.47
2022-08-07T04:58:15.790Z,94057.47
2022-08-07T05:02:48.250Z,94061.00
2022-08-07T05:08:05.555Z,94065.44
2022-08-07T05:14:52.110Z,94072.75
2022-08-07T05:18:55.141Z,94081.03
2022-08-07T05:24:01.675Z,94085.06
2022-08-07T05:29:07.290Z,94090.53
2022-08-07T05:34:12.662Z,94094.03
2022-08-07T05:40:13.409Z,94100.69
2022-08-07T05:44:52.720Z,94105.41
2022-08-07T05:50:06.745Z,94098.50
2022-08-07T05:55:10.961Z,94102.69
2022-08-07T06:00:18.205Z,94108.97
2022-08-07T06:05:34.653Z,94108.53
2022-08-07T06:10:43.032Z,94108.97
2022-08-07T06:15:49.915Z,94113.22
2022-08-07T06:22:14.277Z,94124.06
2022-08-07T06:26:27.614Z,94126.31
2022-08-07T06:31:46.789Z,94124.66
2022-08-07T06:36:53.562Z,94126.16
2022-08-07T06:42:10.595Z,94131.50
2022-08-07T06:47:48.138Z,94132.25
2022-08-07T06:52:57.129Z,94141.81
2022-08-07T06:58:09.531Z,94136.19
2022-08-07T07:03:26.447Z,94141.75
2022-08-07T07:08:46.586Z,94149.69
2022-08-07T07:13:58.673Z,94147.25
2022-08-07T07:19:33.805Z,94163.41
2022-08-07T07:24:27.311Z,94159.91
2022-08-07T07:29:56.712Z,94164.38
2022-08-07T07:34:58.339Z,94164.88
2022-08-07T07:40:10.322Z,94160.81
2022-08-07T07:45:19.259Z,94169.47
2022-08-07T07:50:32.770Z,94165.31
2022-08-07T07:55:54.471Z,94156.44
2022-08-07T08:00:58.310Z,94159.56
2022-08-07T08:06:00.733Z,94161.84
2022-08-07T08:11:04.598Z,94153.81
2022-08-07T08:16:07.207Z,94154.25
2022-08-07T08:21:59.137Z,94154.44
2022-08-07T08:27:09.338Z,94148.56
2022-08-07T08:32:18.567Z,94147.59
2022-08-07T08:38:01.657Z,94138.59
2022-08-07T08:42:52.976Z,94136.13
2022-08-07T08:48:28.283Z,94146.88
2022-08-07T08:53:35.932Z,94149.22
2022-08-07T08:58:54.447Z,94131.06
2022-08-07T09:04:13.635Z,94129.41
2022-08-07T09:09:57.176Z,94129.28
2022-08-07T09:16:20.706Z,94124.00
2022-08-07T09:21:03.852Z,94122.56
2022-08-07T09:26:39.808Z,94116.06
2022-08-07T09:32:02.674Z,94121.19
2022-08-07T09:37:33.334Z,94116.13
2022-08-07T09:43:18.679Z,94105.88
2022-08-07T09:50:02.197Z,94112.41
2022-08-07T09:54:46.813Z,94113.66
2022-08-07T10:00:02.875Z,94109.78
2022-08-07T10:05:59.061Z,94116.16
2022-08-07T10:12:01.962Z,94103.41
2022-08-07T10:17:01.014Z,94106.22
2022-08-07T10:22:18.236Z,94107.19
2022-08-07T10:28:08.949Z,94105.38
2022-08-07T10:34:06.717Z,94097.66
2022-08-07T10:39:25.703Z,94098.28
2022-08-07T10:45:06.136Z,94083.69
2022-08-07T10:50:15.435Z,94080.44
2022-08-07T10:56:04.871Z,94070.66
2022-08-07T11:01:25.559Z,94055.41
2022-08-07T11:06:44.525Z,94069.84
2022-08-07T11:11:52.118Z,94058.22
2022-08-07T11:17:13.678Z,94055.41
2022-08-07T11:22:51.932Z,94051.84
2022-08-07T11:28:06.596Z,94040.91
2022-08-07T11:33:19.539Z,94038.34
2022-08-07T11:39:03.791Z,94035.91
2022-08-07T11:44:20.890Z,94036.84
2022-08-07T11:50:30.785Z,94028.31
2022-08-07T11:55:13.000Z,94026.75
2022-08-07T12:00:53.689Z,94030.03
2022-08-07T12:06:39.808Z,94022.38
2022-08-07T12:12:09.276Z,94008.50
2022-08-07T12:17:20.369Z,94006.88
2022-08-07T12:22:39.046Z,94008.44
2022-08-07T12:28:09.546Z,93993.19
2022-08-07T12:33:28.302Z,93986.75
2022-08-07T12:38:42.917Z,93976.56
2022-08-07T12:44:02.923Z,93979.34
2022-08-07T12:50:00.427Z,93976.31
2022-08-07T12:55:22.071Z,93966.63
2022-08-07T13:01:08.051Z,93965.84
2022-08-07T13:07:00.183Z,93967.13
2022-08-07T13:12:41.436Z,93955.09
2022-08-07T13:18:03.602Z,93953.25
2022-08-07T13:24:01.409Z,93956.69
2022-08-07T13:28:46.846Z,93947.75
2022-08-07T13:34:33.059Z,93950.25
2022-08-07T13:40:33.765Z,93940.13
2022-08-07T13:46:06.905Z,93933.81
2022-08-07T13:50:32.957Z,93930.13
2022-08-07T13:55:46.950Z,93931.88
2022-08-07T14:00:59.592Z,93928.38
2022-08-07T14:06:12.431Z,93930.09
2022-08-07T14:11:19.229Z,93928.19
2022-08-07T14:16:32.056Z,93928.59
2022-08-07T14:22:01.286Z,93911.63
2022-08-07T14:28:09.460Z,93917.22
2022-08-07T14:32:31.868Z,93910.75
2022-08-07T14:37:38.971Z,93904.50
2022-08-07T14:43:55.256Z,93882.47
2022-08-07T14:48:04.436Z,93891.16
2022-08-07T14:53:08.136Z,93882.97
2022-08-07T15:09:03.361Z,93871.53
2022-08-07T15:31:04.605Z,93852.03
2022-08-07T15:36:08.308Z,93843.88
2022-08-07T15:41:24.236Z,93836.41
2022-08-07T15:52:02.547Z,93835.34
2022-08-07T15:57:10.595Z,93825.22
2022-08-07T16:02:40.154Z,93831.38
2022-08-07T16:08:33.456Z,93824.91
2022-08-07T16:13:59.611Z,93807.50
2022-08-07T16:19:42.463Z,93813.38
2022-08-07T16:24:55.959Z,93812.09
2022-08-07T16:30:30.835Z,93811.53
2022-08-07T16:36:19.703Z,93795.59
2022-08-07T16:41:41.606Z,93797.06
2022-08-07T16:52:59.617Z,93783.81
2022-08-07T16:59:02.413Z,93780.44
2022-08-07T17:04:50.949Z,93787.44
2022-08-07T17:10:33.757Z,93786.53
2022-08-07T17:15:58.720Z,93781.81
2022-08-07T17:21:02.566Z,93778.69
2022-08-07T17:26:50.930Z,93780.69
2022-08-07T17:32:02.641Z,93781.16
2022-08-07T17:38:04.961Z,93771.66
2022-08-07T17:42:58.533Z,93771.16
2022-08-07T17:48:02.865Z,93775.44
2022-08-07T17:53:59.892Z,93773.91
2022-08-07T17:58:38.787Z,93784.16
2022-08-07T18:04:07.343Z,93779.31
2022-08-07T18:09:09.934Z,93777.84
2022-08-07T18:14:55.445Z,93784.00
2022-08-07T18:21:06.462Z,93782.13
2022-08-07T18:25:40.318Z,93783.44
2022-08-07T18:30:49.952Z,93790.09
2022-08-07T18:36:08.139Z,93791.22
2022-08-07T18:41:20.708Z,93787.59
2022-08-07T18:46:28.329Z,93796.44
2022-08-07T18:52:38.702Z,93802.22
2022-08-07T18:57:37.951Z,93799.00
2022-08-07T19:03:11.518Z,93807.47
2022-08-07T19:08:29.409Z,93814.63
2022-08-07T19:13:46.226Z,93806.19
2022-08-07T19:19:00.613Z,93812.28
2022-08-07T19:24:06.566Z,93809.91
2022-08-07T19:31:05.543Z,93825.94
2022-08-07T19:34:34.022Z,93822.16
2022-08-07T19:39:56.445Z,93825.91
2022-08-07T19:45:08.532Z,93830.38
2022-08-07T19:50:43.981Z,93831.31
2022-08-07T19:55:57.472Z,93832.06
2022-08-07T20:00:57.244Z,93843.72
2022-08-07T20:06:02.495Z,93848.94
2022-08-07T20:11:15.087Z,93857.19
2022-08-07T20:16:35.670Z,93860.22
2022-08-07T20:21:47.229Z,93872.28
2022-08-07T20:26:54.811Z,93870.13
2022-08-07T20:31:57.793Z,93878.38
2022-08-07T20:37:00.533Z,93892.28
2022-08-07T20:42:09.288Z,93894.53
2022-08-07T20:47:13.417Z,93893.09
2022-08-07T20:52:21.106Z,93896.91
2022-08-07T20:57:59.876Z,93899.25
2022-08-07T21:03:05.697Z,93904.06
2022-08-07T21:08:12.700Z,93902.59
2022-08-07T21:13:18.676Z,93908.56
2022-08-07T21:18:33.537Z,93913.84
2022-08-07T21:23:53.943Z,93907.81
2022-08-07T21:29:00.923Z,93906.25
2022-08-07T21:34:35.181Z,93902.06
2022-08-07T21:39:51.903Z,93911.63
2022-08-07T21:46:05.351Z,93906.13
2022-08-07T21:50:43.499Z,93906.72
2022-08-07T21:55:50.949Z,93924.53
2022-08-07T22:00:56.348Z,93916.41
2022-08-07T22:06:02.642Z,93908.66
2022-08-07T22:11:05.795Z,93915.22
2022-08-07T22:16:43.042Z,93905.59
2022-08-07T22:22:04.546Z,93915.03
2022-08-07T22:27:15.903Z,93916.56
2022-08-07T22:32:42.357Z,93913.03
2022-08-07T22:38:04.765Z,93911.59
2022-08-07T22:43:15.771Z,93905.25
2022-08-07T22:49:02.304Z,93906.66
2022-08-07T22:54:24.808Z,93919.78
2022-08-07T22:59:38.552Z,93917.63
2022-08-07T23:04:58.452Z,93923.25
2022-08-07T23:10:37.601Z,93920.09
2022-08-07T23:16:06.647Z,93932.19
2022-08-07T23:21:30.160Z,93939.72
2022-08-07T23:26:59.226Z,93944.91
2022-08-07T23:34:20.072Z,93952.94
2022-08-07T23:38:01.646Z,93958.50
2022-08-07T23:43:07.812Z,93958.50
2022-08-07T23:48:50.604Z,93953.47
2022-08-07T23:54:19.823Z,93961.97
